sensor_id;sensor_type;location;lat;lon;timestamp;pressure;altitude;pressure_sealevel;temperature;humidity
50852;BME280;43953;45.508;-122.806;2023-02-20T00:00:19;101869.91;;;12.64;52.91
50852;BME280;43953;45.508;-122.806;2023-02-20T00:00:51;101874.25;;;12.65;52.88
50852;BME280;43953;45.508;-122.806;2023-02-20T00:01:22;101866.16;;;12.65;52.62
50852;BME280;43953;45.508;-122.806;2023-02-20T00:01:54;101863.47;;;12.65;53.08
50852;BME280;43953;45.508;-122.806;2023-02-20T00:02:26;101866.16;;;12.65;52.98
50852;BME280;43953;45.508;-122.806;2023-02-20T00:02:57;101873.25;;;12.66;53.02
50852;BME280;43953;45.508;-122.806;2023-02-20T00:03:29;101869.69;;;12.66;52.98
50852;BME280;43953;45.508;-122.806;2023-02-20T00:04:01;101863.28;;;12.67;52.68
50852;BME280;43953;45.508;-122.806;2023-02-20T00:04:32;101867.84;;;12.66;52.86
50852;BME280;43953;45.508;-122.806;2023-02-20T00:05:03;101867.00;;;12.66;52.80
50852;BME280;43953;45.508;-122.806;2023-02-20T00:05:35;101873.25;;;12.66;53.15
50852;BME280;43953;45.508;-122.806;2023-02-20T00:06:06;101873.25;;;12.66;52.98
50852;BME280;43953;45.508;-122.806;2023-02-20T00:06:38;101868.88;;;12.65;53.03
50852;BME280;43953;45.508;-122.806;2023-02-20T00:07:09;101868.88;;;12.65;52.99
50852;BME280;43953;45.508;-122.806;2023-02-20T00:07:40;101869.91;;;12.64;53.06
50852;BME280;43953;45.508;-122.806;2023-02-20T00:08:11;101869.06;;;12.64;53.19
50852;BME280;43953;45.508;-122.806;2023-02-20T00:08:43;101876.97;;;12.65;53.01
50852;BME280;43953;45.508;-122.806;2023-02-20T00:09:14;101870.72;;;12.65;53.44
50852;BME280;43953;45.508;-122.806;2023-02-20T00:09:45;101870.72;;;12.65;53.14
50852;BME280;43953;45.508;-122.806;2023-02-20T00:10:17;101871.56;;;12.65;53.43
50852;BME280;43953;45.508;-122.806;2023-02-20T00:10:48;101868.03;;;12.65;53.00
50852;BME280;43953;45.508;-122.806;2023-02-20T00:11:19;101871.56;;;12.65;52.95
50852;BME280;43953;45.508;-122.806;2023-02-20T00:11:51;101862.44;;;12.66;52.90
50852;BME280;43953;45.508;-122.806;2023-02-20T00:12:22;101864.09;;;12.67;52.87
50852;BME280;43953;45.508;-122.806;2023-02-20T00:12:53;101864.09;;;12.67;53.05
50852;BME280;43953;45.508;-122.806;2023-02-20T00:13:24;101862.25;;;12.68;53.40
50852;BME280;43953;45.508;-122.806;2023-02-20T00:13:56;101868.47;;;12.68;52.86
50852;BME280;43953;45.508;-122.806;2023-02-20T00:14:27;101875.56;;;12.69;52.76
50852;BME280;43953;45.508;-122.806;2023-02-20T00:14:59;101866.41;;;12.70;52.95
50852;BME280;43953;45.508;-122.806;2023-02-20T00:15:31;101871.81;;;12.70;52.96
50852;BME280;43953;45.508;-122.806;2023-02-20T00:16:02;101872.66;;;12.71;53.28
50852;BME280;43953;45.508;-122.806;2023-02-20T00:16:33;101869.94;;;12.71;52.95
50852;BME280;43953;45.508;-122.806;2023-02-20T00:17:04;101867.91;;;12.73;53.19
50852;BME280;43953;45.508;-122.806;2023-02-20T00:17:35;101872.47;;;12.72;53.06
50852;BME280;43953;45.508;-122.806;2023-02-20T00:18:07;101873.31;;;12.73;53.15
50852;BME280;43953;45.508;-122.806;2023-02-20T00:18:38;101874.13;;;12.73;53.16
50852;BME280;43953;45.508;-122.806;2023-02-20T00:19:09;101872.47;;;12.72;53.04
50852;BME280;43953;45.508;-122.806;2023-02-20T00:19:40;101865.19;;;12.73;53.38
50852;BME280;43953;45.508;-122.806;2023-02-20T00:20:15;101871.66;;;12.72;53.01
50852;BME280;43953;45.508;-122.806;2023-02-20T00:20:47;101874.53;;;12.70;53.28
50852;BME280;43953;45.508;-122.806;2023-02-20T00:21:18;101871.19;;;12.68;53.52
50852;BME280;43953;45.508;-122.806;2023-02-20T00:21:50;101869.50;;;12.67;53.34
50852;BME280;43953;45.508;-122.806;2023-02-20T00:22:22;101874.25;;;12.65;53.40
50852;BME280;43953;45.508;-122.806;2023-02-20T00:22:54;101874.47;;;12.64;53.72
50852;BME280;43953;45.508;-122.806;2023-02-20T00:23:26;101876.13;;;12.65;53.58
50852;BME280;43953;45.508;-122.806;2023-02-20T00:23:57;101870.94;;;12.63;53.33
50852;BME280;43953;45.508;-122.806;2023-02-20T00:24:28;101872.78;;;12.63;53.73
50852;BME280;43953;45.508;-122.806;2023-02-20T00:24:59;101871.97;;;12.62;53.84
50852;BME280;43953;45.508;-122.806;2023-02-20T00:25:30;101867.59;;;12.61;53.69
50852;BME280;43953;45.508;-122.806;2023-02-20T00:26:02;101875.69;;;12.61;53.90
50852;BME280;43953;45.508;-122.806;2023-02-20T00:26:33;101866.94;;;12.59;53.88
50852;BME280;43953;45.508;-122.806;2023-02-20T00:27:04;101872.34;;;12.59;53.85
50852;BME280;43953;45.508;-122.806;2023-02-20T00:27:36;101866.94;;;12.59;53.67
50852;BME280;43953;45.508;-122.806;2023-02-20T00:28:07;101867.97;;;12.58;53.96
50852;BME280;43953;45.508;-122.806;2023-02-20T00:28:39;101865.28;;;12.58;54.03
50852;BME280;43953;45.508;-122.806;2023-02-20T00:29:10;101869.03;;;12.57;54.07
50852;BME280;43953;45.508;-122.806;2023-02-20T00:29:44;101868.16;;;12.57;53.98
50852;BME280;43953;45.508;-122.806;2023-02-20T00:30:17;101877.13;;;12.57;53.99
50852;BME280;43953;45.508;-122.806;2023-02-20T00:30:48;101870.69;;;12.58;53.91
50852;BME280;43953;45.508;-122.806;2023-02-20T00:31:20;101867.16;;;12.58;54.03
50852;BME280;43953;45.508;-122.806;2023-02-20T00:31:55;101866.94;;;12.59;53.67
50852;BME280;43953;45.508;-122.806;2023-02-20T00:32:26;101865.06;;;12.60;53.53
50852;BME280;43953;45.508;-122.806;2023-02-20T00:32:58;101859.50;;;12.61;53.32
50852;BME280;43953;45.508;-122.806;2023-02-20T00:33:29;101859.50;;;12.61;53.65
50852;BME280;43953;45.508;-122.806;2023-02-20T00:34:01;101860.31;;;12.62;53.29
50852;BME280;43953;45.508;-122.806;2023-02-20T00:34:32;101860.53;;;12.60;53.53
50852;BME280;43953;45.508;-122.806;2023-02-20T00:35:03;101852.44;;;12.60;53.71
50852;BME280;43953;45.508;-122.806;2023-02-20T00:35:34;101855.97;;;12.61;53.63
50852;BME280;43953;45.508;-122.806;2023-02-20T00:36:12;101857.81;;;12.60;54.04
50852;BME280;43953;45.508;-122.806;2023-02-20T00:36:47;101855.13;;;12.60;54.03
50852;BME280;43953;45.508;-122.806;2023-02-20T00:37:19;101855.31;;;12.59;54.10
50852;BME280;43953;45.508;-122.806;2023-02-20T00:37:50;101858.84;;;12.59;54.03
50852;BME280;43953;45.508;-122.806;2023-02-20T00:38:21;101856.97;;;12.60;54.26
50852;BME280;43953;45.508;-122.806;2023-02-20T00:38:53;101849.72;;;12.60;54.29
50852;BME280;43953;45.508;-122.806;2023-02-20T00:39:24;101848.84;;;12.60;54.30
50852;BME280;43953;45.508;-122.806;2023-02-20T00:39:55;101854.47;;;12.58;54.30
50852;BME280;43953;45.508;-122.806;2023-02-20T00:40:26;101842.63;;;12.59;54.47
50852;BME280;43953;45.508;-122.806;2023-02-20T00:40:58;101849.06;;;12.58;54.31
50852;BME280;43953;45.508;-122.806;2023-02-20T00:41:29;101849.06;;;12.58;54.37
50852;BME280;43953;45.508;-122.806;2023-02-20T00:42:01;101849.06;;;12.58;54.77
50852;BME280;43953;45.508;-122.806;2023-02-20T00:42:32;101851.94;;;12.57;54.28
50852;BME280;43953;45.508;-122.806;2023-02-20T00:43:03;101854.66;;;12.57;54.52
50852;BME280;43953;45.508;-122.806;2023-02-20T00:43:34;101847.59;;;12.56;54.47
50852;BME280;43953;45.508;-122.806;2023-02-20T00:44:07;101851.13;;;12.56;54.39
50852;BME280;43953;45.508;-122.806;2023-02-20T00:44:38;101851.13;;;12.56;54.43
50852;BME280;43953;45.508;-122.806;2023-02-20T00:45:09;101849.06;;;12.58;53.78
50852;BME280;43953;45.508;-122.806;2023-02-20T00:45:41;101862.38;;;12.60;53.42
50852;BME280;43953;45.508;-122.806;2023-02-20T00:46:13;101853.44;;;12.59;53.52
50852;BME280;43953;45.508;-122.806;2023-02-20T00:46:44;101856.97;;;12.60;53.27
50852;BME280;43953;45.508;-122.806;2023-02-20T00:47:15;101852.59;;;12.59;53.32
50852;BME280;43953;45.508;-122.806;2023-02-20T00:47:47;101859.66;;;12.60;53.86
50852;BME280;43953;45.508;-122.806;2023-02-20T00:48:18;101855.13;;;12.60;53.74
50852;BME280;43953;45.508;-122.806;2023-02-20T00:48:49;101859.88;;;12.58;53.58
50852;BME280;43953;45.508;-122.806;2023-02-20T00:49:21;101858.66;;;12.61;53.62
50852;BME280;43953;45.508;-122.806;2023-02-20T00:49:52;101845.31;;;12.59;53.28
50852;BME280;43953;45.508;-122.806;2023-02-20T00:50:23;101847.03;;;12.60;53.47
50852;BME280;43953;45.508;-122.806;2023-02-20T00:50:54;101857.81;;;12.60;53.18
50852;BME280;43953;45.508;-122.806;2023-02-20T00:51:26;101853.88;;;12.63;53.28
50852;BME280;43953;45.508;-122.806;2023-02-20T00:51:57;101854.72;;;12.63;52.90
50852;BME280;43953;45.508;-122.806;2023-02-20T00:52:28;101848.47;;;12.63;53.06
50852;BME280;43953;45.508;-122.806;2023-02-20T00:52:59;101852.88;;;12.64;52.79
50852;BME280;43953;45.508;-122.806;2023-02-20T00:53:31;101847.47;;;12.64;52.72
50852;BME280;43953;45.508;-122.806;2023-02-20T00:54:02;101849.94;;;12.65;52.90
50852;BME280;43953;45.508;-122.806;2023-02-20T00:54:33;101849.13;;;12.65;52.81
50852;BME280;43953;45.508;-122.806;2023-02-20T00:55:04;101848.28;;;12.64;52.42
50852;BME280;43953;45.508;-122.806;2023-02-20T00:55:36;101846.41;;;12.65;52.53
50852;BME280;43953;45.508;-122.806;2023-02-20T00:56:07;101841.00;;;12.65;52.67
50852;BME280;43953;45.508;-122.806;2023-02-20T00:56:38;101835.81;;;12.63;52.69
50852;BME280;43953;45.508;-122.806;2023-02-20T00:57:10;101841.22;;;12.63;52.64
50852;BME280;43953;45.508;-122.806;2023-02-20T00:57:41;101834.13;;;12.62;52.94
50852;BME280;43953;45.508;-122.806;2023-02-20T00:58:12;101832.47;;;12.61;52.77
50852;BME280;43953;45.508;-122.806;2023-02-20T00:58:44;101839.53;;;12.62;52.64
50852;BME280;43953;45.508;-122.806;2023-02-20T00:59:15;101833.28;;;12.62;53.18
50852;BME280;43953;45.508;-122.806;2023-02-20T00:59:46;101847.84;;;12.61;52.92
50852;BME280;43953;45.508;-122.806;2023-02-20T01:00:20;101838.91;;;12.60;53.04
50852;BME280;43953;45.508;-122.806;2023-02-20T01:00:51;101842.63;;;12.59;52.82
50852;BME280;43953;45.508;-122.806;2023-02-20T01:01:22;101840.97;;;12.58;53.10
50852;BME280;43953;45.508;-122.806;2023-02-20T01:01:54;101844.72;;;12.57;53.00
50852;BME280;43953;45.508;-122.806;2023-02-20T01:02:25;101833.25;;;12.55;52.51
50852;BME280;43953;45.508;-122.806;2023-02-20T01:02:56;101841.53;;;12.53;52.38
50852;BME280;43953;45.508;-122.806;2023-02-20T01:03:28;101832.59;;;12.53;52.89
50852;BME280;43953;45.508;-122.806;2023-02-20T01:03:59;101833.63;;;12.52;52.61
50852;BME280;43953;45.508;-122.806;2023-02-20T01:04:31;101836.53;;;12.50;53.05
50852;BME280;43953;45.508;-122.806;2023-02-20T01:05:02;101828.63;;;12.49;53.04
50852;BME280;43953;45.508;-122.806;2023-02-20T01:05:33;101829.47;;;12.49;53.04
50852;BME280;43953;45.508;-122.806;2023-02-20T01:06:05;101829.47;;;12.49;53.39
50852;BME280;43953;45.508;-122.806;2023-02-20T01:06:36;101835.69;;;12.50;53.23
50852;BME280;43953;45.508;-122.806;2023-02-20T01:07:07;101823.66;;;12.52;53.12
50852;BME280;43953;45.508;-122.806;2023-02-20T01:07:38;101828.88;;;12.54;52.93
50852;BME280;43953;45.508;-122.806;2023-02-20T01:08:10;101830.56;;;12.55;52.74
50852;BME280;43953;45.508;-122.806;2023-02-20T01:08:41;101823.28;;;12.56;53.10
50852;BME280;43953;45.508;-122.806;2023-02-20T01:09:12;101813.28;;;12.56;52.78
50852;BME280;43953;45.508;-122.806;2023-02-20T01:09:43;101814.13;;;12.57;52.98
50852;BME280;43953;45.508;-122.806;2023-02-20T01:10:15;101807.88;;;12.56;52.73
50852;BME280;43953;45.508;-122.806;2023-02-20T01:10:46;101806.22;;;12.55;53.03
50852;BME280;43953;45.508;-122.806;2023-02-20T01:11:17;101811.63;;;12.55;52.63
50852;BME280;43953;45.508;-122.806;2023-02-20T01:11:48;101798.13;;;12.55;52.58
50852;BME280;43953;45.508;-122.806;2023-02-20T01:12:20;101797.91;;;12.57;52.80
50852;BME280;43953;45.508;-122.806;2023-02-20T01:12:51;101794.38;;;12.56;52.80
50852;BME280;43953;45.508;-122.806;2023-02-20T01:13:22;101794.38;;;12.56;52.83
50852;BME280;43953;45.508;-122.806;2023-02-20T01:13:53;101783.41;;;12.58;52.96
50852;BME280;43953;45.508;-122.806;2023-02-20T01:14:25;101791.69;;;12.56;52.40
50852;BME280;43953;45.508;-122.806;2023-02-20T01:14:56;101779.88;;;12.57;52.45
50852;BME280;43953;45.508;-122.806;2023-02-20T01:15:27;101785.44;;;12.56;52.92
50852;BME280;43953;45.508;-122.806;2023-02-20T01:15:58;101774.66;;;12.56;52.63
50852;BME280;43953;45.508;-122.806;2023-02-20T01:16:29;101783.78;;;12.55;52.79
50852;BME280;43953;45.508;-122.806;2023-02-20T01:17:01;101782.97;;;12.54;52.77
50852;BME280;43953;45.508;-122.806;2023-02-20T01:17:32;101775.03;;;12.52;52.59
50852;BME280;43953;45.508;-122.806;2023-02-20T01:18:03;101778.56;;;12.53;52.57
50852;BME280;43953;45.508;-122.806;2023-02-20T01:18:35;101784.19;;;12.51;52.41
50852;BME280;43953;45.508;-122.806;2023-02-20T01:19:06;101788.72;;;12.51;52.81
50852;BME280;43953;45.508;-122.806;2023-02-20T01:19:37;101790.81;;;12.49;52.66
50852;BME280;43953;45.508;-122.806;2023-02-20T01:20:09;101782.69;;;12.49;52.84
50852;BME280;43953;45.508;-122.806;2023-02-20T01:20:40;101787.28;;;12.48;53.03
50852;BME280;43953;45.508;-122.806;2023-02-20T01:21:11;101789.13;;;12.48;52.65
50852;BME280;43953;45.508;-122.806;2023-02-20T01:21:43;101784.56;;;12.48;53.17
50852;BME280;43953;45.508;-122.806;2023-02-20T01:22:14;101785.59;;;12.47;53.23
50852;BME280;43953;45.508;-122.806;2023-02-20T01:22:45;101790.16;;;12.47;52.88
50852;BME280;43953;45.508;-122.806;2023-02-20T01:23:16;101792.84;;;12.47;53.05
50852;BME280;43953;45.508;-122.806;2023-02-20T01:23:48;101788.28;;;12.47;52.90
50852;BME280;43953;45.508;-122.806;2023-02-20T01:24:19;101789.13;;;12.48;53.65
50852;BME280;43953;45.508;-122.806;2023-02-20T01:24:50;101795.56;;;12.47;53.32
50852;BME280;43953;45.508;-122.806;2023-02-20T01:25:22;101798.25;;;12.47;52.91
50852;BME280;43953;45.508;-122.806;2023-02-20T01:25:53;101785.78;;;12.46;53.42
50852;BME280;43953;45.508;-122.806;2023-02-20T01:26:24;101793.06;;;12.45;53.00
50852;BME280;43953;45.508;-122.806;2023-02-20T01:26:55;101794.91;;;12.45;53.24
50852;BME280;43953;45.508;-122.806;2023-02-20T01:27:26;101797.00;;;12.43;53.06
50852;BME280;43953;45.508;-122.806;2023-02-20T01:27:58;101793.47;;;12.42;53.11
50852;BME280;43953;45.508;-122.806;2023-02-20T01:28:29;101794.09;;;12.44;52.91
50852;BME280;43953;45.508;-122.806;2023-02-20T01:29:00;101786.19;;;12.43;52.93
50852;BME280;43953;45.508;-122.806;2023-02-20T01:29:32;101797.81;;;12.43;53.03
50852;BME280;43953;45.508;-122.806;2023-02-20T01:30:03;101797.00;;;12.43;53.15
50852;BME280;43953;45.508;-122.806;2023-02-20T01:30:34;101801.56;;;12.42;52.79
50852;BME280;43953;45.508;-122.806;2023-02-20T01:31:06;101807.78;;;12.43;52.78
50852;BME280;43953;45.508;-122.806;2023-02-20T01:31:37;101806.09;;;12.42;53.42
50852;BME280;43953;45.508;-122.806;2023-02-20T01:32:10;101802.41;;;12.43;52.90
50852;BME280;43953;45.508;-122.806;2023-02-20T01:32:41;101806.09;;;12.42;52.95
50852;BME280;43953;45.508;-122.806;2023-02-20T01:33:12;101814.22;;;12.42;52.78
50852;BME280;43953;45.508;-122.806;2023-02-20T01:33:44;101806.09;;;12.42;52.55
50852;BME280;43953;45.508;-122.806;2023-02-20T01:34:15;101808.63;;;12.43;52.81
50852;BME280;43953;45.508;-122.806;2023-02-20T01:34:46;101803.22;;;12.43;52.58
50852;BME280;43953;45.508;-122.806;2023-02-20T01:35:17;101811.31;;;12.43;52.71
50852;BME280;43953;45.508;-122.806;2023-02-20T01:35:49;101808.63;;;12.43;52.94
50852;BME280;43953;45.508;-122.806;2023-02-20T01:36:20;101804.06;;;12.44;52.88
50852;BME280;43953;45.508;-122.806;2023-02-20T01:36:52;101801.34;;;12.44;52.93
50852;BME280;43953;45.508;-122.806;2023-02-20T01:37:24;101797.81;;;12.43;52.98
50852;BME280;43953;45.508;-122.806;2023-02-20T01:37:55;101808.41;;;12.45;52.49
50852;BME280;43953;45.508;-122.806;2023-02-20T01:38:26;101811.13;;;12.45;52.95
50852;BME280;43953;45.508;-122.806;2023-02-20T01:38:58;101805.53;;;12.46;52.67
50852;BME280;43953;45.508;-122.806;2023-02-20T01:39:29;101809.06;;;12.47;53.22
50852;BME280;43953;45.508;-122.806;2023-02-20T01:40:03;101819.03;;;12.46;52.85
50852;BME280;43953;45.508;-122.806;2023-02-20T01:40:35;101819.03;;;12.46;53.23
50852;BME280;43953;45.508;-122.806;2023-02-20T01:41:10;101820.69;;;12.47;53.00
50852;BME280;43953;45.508;-122.806;2023-02-20T01:41:41;101826.94;;;12.48;52.61
50852;BME280;43953;45.508;-122.806;2023-02-20T01:42:15;101819.88;;;12.47;52.82
50852;BME280;43953;45.508;-122.806;2023-02-20T01:42:47;101826.09;;;12.47;52.66
50852;BME280;43953;45.508;-122.806;2023-02-20T01:43:19;101826.94;;;12.48;52.90
50852;BME280;43953;45.508;-122.806;2023-02-20T01:43:50;101830.69;;;12.47;52.82
50852;BME280;43953;45.508;-122.806;2023-02-20T01:44:23;101821.53;;;12.48;52.41
50852;BME280;43953;45.508;-122.806;2023-02-20T01:45:10;101821.34;;;12.49;52.36
50852;BME280;43953;45.508;-122.806;2023-02-20T01:45:44;101823.22;;;12.49;52.32
50852;BME280;43953;45.508;-122.806;2023-02-20T01:46:59;101815.94;;;12.49;52.17
50852;BME280;43953;45.508;-122.806;2023-02-20T01:47:31;101818.66;;;12.49;52.45
50852;BME280;43953;45.508;-122.806;2023-02-20T01:48:02;101809.06;;;12.47;52.36
50852;BME280;43953;45.508;-122.806;2023-02-20T01:48:34;101819.88;;;12.47;52.57
50852;BME280;43953;45.508;-122.806;2023-02-20T01:49:12;101814.47;;;12.47;52.66
50852;BME280;43953;45.508;-122.806;2023-02-20T01:50:16;101812.81;;;12.46;52.89
50852;BME280;43953;45.508;-122.806;2023-02-20T01:50:49;101811.97;;;12.45;52.32
50852;BME280;43953;45.508;-122.806;2023-02-20T01:51:22;101808.63;;;12.43;52.26
50852;BME280;43953;45.508;-122.806;2023-02-20T01:51:58;101804.06;;;12.44;52.40
50852;BME280;43953;45.508;-122.806;2023-02-20T01:52:30;101805.94;;;12.43;52.54
50852;BME280;43953;45.508;-122.806;2023-02-20T01:53:05;101810.50;;;12.43;52.73
50852;BME280;43953;45.508;-122.806;2023-02-20T01:53:38;101808.63;;;12.43;52.12
50852;BME280;43953;45.508;-122.806;2023-02-20T01:54:10;101804.06;;;12.44;52.17
50852;BME280;43953;45.508;-122.806;2023-02-20T01:54:43;101801.19;;;12.45;52.06
50852;BME280;43953;45.508;-122.806;2023-02-20T01:55:20;101802.63;;;12.48;52.41
50852;BME280;43953;45.508;-122.806;2023-02-20T01:55:59;101796.38;;;12.47;52.46
50852;BME280;43953;45.508;-122.806;2023-02-20T01:56:32;101782.69;;;12.49;51.97
50852;BME280;43953;45.508;-122.806;2023-02-20T01:57:03;101780.00;;;12.49;52.12
50852;BME280;43953;45.508;-122.806;2023-02-20T01:57:40;101772.91;;;12.48;52.15
50852;BME280;43953;45.508;-122.806;2023-02-20T01:58:33;101772.09;;;12.47;52.69
50852;BME280;43953;45.508;-122.806;2023-02-20T01:59:06;101768.75;;;12.45;52.71
50852;BME280;43953;45.508;-122.806;2023-02-20T01:59:38;101765.19;;;12.45;52.60
50852;BME280;43953;45.508;-122.806;2023-02-20T02:00:13;101773.31;;;12.45;52.99
50852;BME280;43953;45.508;-122.806;2023-02-20T02:00:45;101763.75;;;12.42;52.82
50852;BME280;43953;45.508;-122.806;2023-02-20T02:01:16;101767.47;;;12.41;53.03
50852;BME280;43953;45.508;-122.806;2023-02-20T02:01:48;101768.69;;;12.39;53.06
50852;BME280;43953;45.508;-122.806;2023-02-20T02:02:20;101775.13;;;12.38;53.14
50852;BME280;43953;45.508;-122.806;2023-02-20T02:03:05;101778.88;;;12.37;53.28
50852;BME280;43953;45.508;-122.806;2023-02-20T02:03:38;101784.88;;;12.39;53.04
50852;BME280;43953;45.508;-122.806;2023-02-20T02:04:11;101779.47;;;12.39;52.66
50852;BME280;43953;45.508;-122.806;2023-02-20T02:04:42;101787.41;;;12.40;52.99
50852;BME280;43953;45.508;-122.806;2023-02-20T02:05:14;101796.53;;;12.39;52.95
50852;BME280;43953;45.508;-122.806;2023-02-20T02:05:47;101800.09;;;12.40;52.80
50852;BME280;43953;45.508;-122.806;2023-02-20T02:06:19;101802.78;;;12.40;53.11
50852;BME280;43953;45.508;-122.806;2023-02-20T02:06:51;101810.88;;;12.40;52.64
50852;BME280;43953;45.508;-122.806;2023-02-20T02:07:23;101816.28;;;12.40;52.89
50852;BME280;43953;45.508;-122.806;2023-02-20T02:07:54;101818.78;;;12.41;52.91
50852;BME280;43953;45.508;-122.806;2023-02-20T02:08:26;101816.09;;;12.41;52.54
50852;BME280;43953;45.508;-122.806;2023-02-20T02:08:58;101823.34;;;12.41;52.95
50852;BME280;43953;45.508;-122.806;2023-02-20T02:10:08;101819.00;;;12.40;53.31
50852;BME280;43953;45.508;-122.806;2023-02-20T02:10:46;101815.63;;;12.38;53.30
50852;BME280;43953;45.508;-122.806;2023-02-20T02:11:21;101819.38;;;12.37;53.10
50852;BME280;43953;45.508;-122.806;2023-02-20T02:11:53;101816.84;;;12.35;53.36
50852;BME280;43953;45.508;-122.806;2023-02-20T02:12:24;101823.09;;;12.36;53.44
50852;BME280;43953;45.508;-122.806;2023-02-20T02:12:55;101826.63;;;12.36;52.99
50852;BME280;43953;45.508;-122.806;2023-02-20T02:13:27;101823.09;;;12.36;53.00
50852;BME280;43953;45.508;-122.806;2023-02-20T02:13:58;101822.91;;;12.37;52.96
50852;BME280;43953;45.508;-122.806;2023-02-20T02:14:29;101828.31;;;12.37;53.24
50852;BME280;43953;45.508;-122.806;2023-02-20T02:15:01;101821.22;;;12.36;52.88
50852;BME280;43953;45.508;-122.806;2023-02-20T02:15:32;101823.09;;;12.36;52.80
50852;BME280;43953;45.508;-122.806;2023-02-20T02:24:22;101836.47;;;12.44;52.78
50852;BME280;43953;45.508;-122.806;2023-02-20T02:25:11;101836.47;;;12.44;52.26
50852;BME280;43953;45.508;-122.806;2023-02-20T02:27:35;101820.00;;;12.39;52.76
50852;BME280;43953;45.508;-122.806;2023-02-20T02:30:40;101813.06;;;12.29;53.22
50852;BME280;43953;45.508;-122.806;2023-02-20T02:35:31;101817.56;;;12.22;53.17
50852;BME280;43953;45.508;-122.806;2023-02-20T02:37:35;101842.44;;;12.18;53.78
50852;BME280;43953;45.508;-122.806;2023-02-20T02:38:54;101844.53;;;12.16;53.77
50852;BME280;43953;45.508;-122.806;2023-02-20T02:40:56;101844.69;;;12.14;53.56
50852;BME280;43953;45.508;-122.806;2023-02-20T02:42:09;101843.22;;;12.12;53.97
50852;BME280;43953;45.508;-122.806;2023-02-20T02:43:22;101839.69;;;12.11;54.23
50852;BME280;43953;45.508;-122.806;2023-02-20T02:44:10;101830.53;;;12.12;54.44
50852;BME280;43953;45.508;-122.806;2023-02-20T02:44:56;101830.75;;;12.11;54.15
50852;BME280;43953;45.508;-122.806;2023-02-20T02:46:19;101824.69;;;12.09;54.37
50852;BME280;43953;45.508;-122.806;2023-02-20T02:47:11;101818.25;;;12.10;54.31
50852;BME280;43953;45.508;-122.806;2023-02-20T02:47:45;101820.78;;;12.11;54.23
50852;BME280;43953;45.508;-122.806;2023-02-20T02:48:55;101824.31;;;12.12;54.06
50852;BME280;43953;45.508;-122.806;2023-02-20T02:50:16;101836.31;;;12.09;54.45
50852;BME280;43953;45.508;-122.806;2023-02-20T02:50:48;101835.69;;;12.07;54.21
50852;BME280;43953;45.508;-122.806;2023-02-20T02:51:24;101836.09;;;12.04;54.35
50852;BME280;43953;45.508;-122.806;2023-02-20T02:51:58;101829.00;;;12.03;54.27
50852;BME280;43953;45.508;-122.806;2023-02-20T02:52:30;101834.78;;;12.00;54.56
50852;BME280;43953;45.508;-122.806;2023-02-20T02:53:11;101832.28;;;11.98;54.08
50852;BME280;43953;45.508;-122.806;2023-02-20T02:54:04;101836.81;;;11.98;54.16
50852;BME280;43953;45.508;-122.806;2023-02-20T02:54:35;101839.34;;;11.99;54.76
50852;BME280;43953;45.508;-122.806;2023-02-20T02:55:07;101840.19;;;12.00;54.64
50852;BME280;43953;45.508;-122.806;2023-02-20T02:55:39;101847.44;;;11.99;54.63
50852;BME280;43953;45.508;-122.806;2023-02-20T02:56:10;101848.28;;;12.00;54.70
50852;BME280;43953;45.508;-122.806;2023-02-20T02:57:15;101848.94;;;12.02;54.30
50852;BME280;43953;45.508;-122.806;2023-02-20T02:57:44;101853.28;;;12.03;54.38
50852;BME280;43953;45.508;-122.806;2023-02-20T02:58:16;101854.31;;;12.02;54.51
50852;BME280;43953;45.508;-122.806;2023-02-20T02:58:48;101854.31;;;12.02;54.68
50852;BME280;43953;45.508;-122.806;2023-02-20T02:59:22;101857.84;;;12.02;54.62
50852;BME280;43953;45.508;-122.806;2023-02-20T02:59:58;101851.63;;;12.02;54.16
50852;BME280;43953;45.508;-122.806;2023-02-20T03:01:01;101849.31;;;11.99;54.42
50852;BME280;43953;45.508;-122.806;2023-02-20T03:01:34;101857.19;;;12.00;54.49
50852;BME280;43953;45.508;-122.806;2023-02-20T03:02:08;101856.38;;;12.00;54.64
50852;BME280;43953;45.508;-122.806;2023-02-20T03:02:44;101852.66;;;12.01;54.77
50852;BME280;43953;45.508;-122.806;2023-02-20T03:03:48;101852.47;;;12.02;54.11
50852;BME280;43953;45.508;-122.806;2023-02-20T03:04:20;101853.50;;;12.01;54.26
50852;BME280;43953;45.508;-122.806;2023-02-20T03:05:00;101857.19;;;12.00;54.56
50852;BME280;43953;45.508;-122.806;2023-02-20T03:05:37;101856.38;;;12.00;54.46
50852;BME280;43953;45.508;-122.806;2023-02-20T03:06:14;101860.09;;;11.99;54.10
50852;BME280;43953;45.508;-122.806;2023-02-20T03:06:49;101860.75;;;12.01;53.98
50852;BME280;43953;45.508;-122.806;2023-02-20T03:07:21;101864.28;;;12.01;54.23
50852;BME280;43953;45.508;-122.806;2023-02-20T03:07:54;101863.47;;;12.01;54.18
50852;BME280;43953;45.508;-122.806;2023-02-20T03:08:32;101865.31;;;12.00;54.14
50852;BME280;43953;45.508;-122.806;2023-02-20T03:09:14;101856.75;;;11.97;53.93
50852;BME280;43953;45.508;-122.806;2023-02-20T03:09:49;101854.44;;;11.94;54.24
50852;BME280;43953;45.508;-122.806;2023-02-20T03:10:22;101856.31;;;11.93;54.73
50852;BME280;43953;45.508;-122.806;2023-02-20T03:11:05;101858.78;;;11.95;54.35
50852;BME280;43953;45.508;-122.806;2023-02-20T03:11:36;101856.31;;;11.93;54.73